createdAt,value
2019-05-26T00:01:26.510Z,40.80
2019-05-26T00:04:02.200Z,41.53
2019-05-26T00:06:35.673Z,35.60
2019-05-26T00:09:09.006Z,34.75
2019-05-26T00:11:41.434Z,38.42
2019-05-26T00:14:13.968Z,39.23
2019-05-26T00:16:47.646Z,41.10
2019-05-26T00:19:21.120Z,42.30
2019-05-26T00:21:53.985Z,46.90
2019-05-26T00:24:28.799Z,39.63
2019-05-26T00:27:01.313Z,40.55
2019-05-26T00:29:34.937Z,38.53
2019-05-26T00:32:07.401Z,40.67
2019-05-26T00:37:11.751Z,41.42
2019-05-26T00:42:15.738Z,42.05
2019-05-26T00:44:49.137Z,42.62
2019-05-26T00:47:21.704Z,36.45
2019-05-26T00:49:55.209Z,40.50
2019-05-26T00:52:29.898Z,36.08
2019-05-26T00:55:02.601Z,36.77
2019-05-26T00:57:35.929Z,36.98
2019-05-26T01:00:14.898Z,38.45
2019-05-26T01:02:47.431Z,42.03
2019-05-26T01:05:22.719Z,43.45
2019-05-26T01:08:05.693Z,48.33
2019-05-26T01:10:29.679Z,43.35
2019-05-26T01:15:34.004Z,49.70
2019-05-26T01:18:07.521Z,44.40
2019-05-26T01:20:40.167Z,37.48
2019-05-26T01:23:13.173Z,43.40
2019-05-26T01:28:19.409Z,47.25
2019-05-26T01:30:52.366Z,46.00
2019-05-26T01:33:25.991Z,49.48
2019-05-26T01:35:59.159Z,50.12
2019-05-26T01:38:32.343Z,52.75
2019-05-26T01:41:06.184Z,53.73
2019-05-26T01:43:39.203Z,57.05
2019-05-26T01:46:13.560Z,65.85
2019-05-26T01:48:47.701Z,59.93
2019-05-26T01:51:20.462Z,55.38
2019-05-26T01:53:55.535Z,58.68
2019-05-26T01:56:32.823Z,51.75
2019-05-26T01:59:07.612Z,51.95
2019-05-26T02:01:40.169Z,44.35
2019-05-26T02:04:12.724Z,46.40
2019-05-26T02:09:18.226Z,51.18
2019-05-26T02:11:52.490Z,47.48
2019-05-26T02:14:27.801Z,49.90
2019-05-26T02:17:00.697Z,47.90
2019-05-26T02:19:33.907Z,52.83
2019-05-26T02:22:07.460Z,47.73
2019-05-26T02:24:40.056Z,59.30
2019-05-26T02:29:44.912Z,42.00
2019-05-26T02:32:17.305Z,40.40
2019-05-26T02:34:51.169Z,43.40
2019-05-26T02:37:23.957Z,42.60
2019-05-26T02:42:29.980Z,42.83
2019-05-26T02:45:03.285Z,48.10
2019-05-26T02:47:36.443Z,38.15
2019-05-26T02:50:11.565Z,38.73
2019-05-26T02:52:45.792Z,41.23
2019-05-26T02:55:20.421Z,41.40
2019-05-26T02:57:53.104Z,51.02
2019-05-26T03:03:12.205Z,42.67
2019-05-26T03:05:48.246Z,40.52
2019-05-26T03:08:21.929Z,46.05
2019-05-26T03:10:55.915Z,43.50
2019-05-26T03:13:30.694Z,46.23
2019-05-26T03:16:03.850Z,48.35
2019-05-26T03:18:38.350Z,44.80
2019-05-26T03:21:15.628Z,41.50
2019-05-26T03:23:50.868Z,41.70
2019-05-26T03:26:24.882Z,38.92
2019-05-26T03:28:57.407Z,38.05
2019-05-26T03:31:30.341Z,41.20
2019-05-26T03:34:03.121Z,37.93
2019-05-26T03:36:36.572Z,39.20
2019-05-26T03:39:09.879Z,39.03
2019-05-26T03:41:42.640Z,38.90
2019-05-26T03:44:15.032Z,34.98
2019-05-26T03:46:48.581Z,35.15
2019-05-26T03:49:21.525Z,37.58
2019-05-26T03:51:54.399Z,37.38
2019-05-26T03:56:59.124Z,39.88
2019-05-26T03:59:32.166Z,36.55
2019-05-26T04:02:05.174Z,45.60
2019-05-26T04:04:37.810Z,40.45
2019-05-26T04:07:13.300Z,32.58
2019-05-26T04:10:03.718Z,38.48
2019-05-26T04:12:24.519Z,32.90
2019-05-26T04:14:56.908Z,33.90
2019-05-26T04:17:29.575Z,32.85
2019-05-26T04:22:34.643Z,35.68
2019-05-26T04:27:40.697Z,36.95
2019-05-26T04:30:15.720Z,34.98
2019-05-26T04:32:48.722Z,37.10
2019-05-26T04:35:21.859Z,33.23
2019-05-26T04:37:56.703Z,32.25
2019-05-26T04:40:30.856Z,37.05
2019-05-26T04:43:04.040Z,32.48
2019-05-26T04:45:37.662Z,32.83
2019-05-26T04:48:10.677Z,28.87
2019-05-26T04:53:15.631Z,37.73
2019-05-26T04:55:48.161Z,26.50
2019-05-26T04:58:20.817Z,31.68
2019-05-26T05:00:53.158Z,30.68
2019-05-26T05:03:25.731Z,33.78
2019-05-26T05:05:57.847Z,31.60
2019-05-26T05:08:30.709Z,33.08
2019-05-26T05:11:03.183Z,34.67
2019-05-26T05:16:07.172Z,31.50
2019-05-26T05:18:39.504Z,28.05
2019-05-26T05:21:12.458Z,31.93
2019-05-26T05:23:45.647Z,30.00
2019-05-26T05:26:18.148Z,35.48
2019-05-26T05:28:51.679Z,30.08
2019-05-26T05:31:25.134Z,30.32
2019-05-26T05:33:57.964Z,28.27
2019-05-26T05:36:32.084Z,30.72
2019-05-26T05:39:06.504Z,28.52
2019-05-26T05:41:39.366Z,32.15
2019-05-26T05:44:11.937Z,28.87
2019-05-26T05:46:44.511Z,30.00
2019-05-26T05:49:17.326Z,28.17
2019-05-26T05:51:50.424Z,27.87
2019-05-26T05:54:22.866Z,27.48
2019-05-26T05:56:55.873Z,28.10
2019-05-26T05:59:29.110Z,29.98
2019-05-26T06:02:01.903Z,28.90
2019-05-26T06:04:35.091Z,35.13
2019-05-26T06:07:07.398Z,32.45
2019-05-26T06:09:39.952Z,29.12
2019-05-26T06:12:12.540Z,29.00
2019-05-26T06:14:45.450Z,39.10
2019-05-26T06:17:17.700Z,34.43
2019-05-26T06:19:50.830Z,27.90
2019-05-26T06:22:23.954Z,27.45
2019-05-26T06:24:57.733Z,31.35
2019-05-26T06:27:30.998Z,26.60
2019-05-26T06:30:03.843Z,31.12
2019-05-26T06:32:36.923Z,30.48
2019-05-26T06:35:20.226Z,26.12
2019-05-26T06:37:55.384Z,28.85
2019-05-26T06:40:27.734Z,25.50
2019-05-26T06:43:00.359Z,26.15
2019-05-26T06:45:33.460Z,28.40
2019-05-26T06:48:06.196Z,25.25
2019-05-26T06:53:10.394Z,23.30
2019-05-26T06:55:42.972Z,24.65
2019-05-26T06:58:15.651Z,25.72
2019-05-26T07:00:48.372Z,30.02
2019-05-26T07:03:21.010Z,32.25
2019-05-26T07:05:53.689Z,24.25
2019-05-26T07:08:26.036Z,29.87
2019-05-26T07:10:58.560Z,27.60
2019-05-26T07:13:31.267Z,27.50
2019-05-26T07:16:04.201Z,28.47
2019-05-26T07:18:36.635Z,28.57
2019-05-26T07:21:09.084Z,23.45
2019-05-26T07:23:41.826Z,30.75
2019-05-26T07:26:14.776Z,30.32
2019-05-26T07:28:47.813Z,26.65
2019-05-26T07:31:20.508Z,27.02
2019-05-26T07:33:52.957Z,28.45
2019-05-26T07:36:25.707Z,31.15
2019-05-26T07:38:58.524Z,30.10
2019-05-26T07:41:31.025Z,32.10
2019-05-26T07:44:04.247Z,29.02
2019-05-26T07:46:36.619Z,25.00
2019-05-26T07:49:09.127Z,25.70
2019-05-26T07:54:25.075Z,27.42
2019-05-26T07:56:46.989Z,28.23
2019-05-26T07:59:20.055Z,28.40
2019-05-26T08:01:52.768Z,28.00
2019-05-26T08:04:25.628Z,27.07
2019-05-26T08:06:59.193Z,26.62
2019-05-26T08:09:32.629Z,27.22
2019-05-26T08:12:06.570Z,24.82
2019-05-26T08:14:39.694Z,22.67
2019-05-26T08:19:43.250Z,29.95
2019-05-26T08:22:15.338Z,22.32
2019-05-26T08:24:48.328Z,30.60
2019-05-26T08:27:20.900Z,25.90
2019-05-26T08:29:53.585Z,25.60
2019-05-26T08:32:26.406Z,23.87
2019-05-26T08:34:59.051Z,25.65
2019-05-26T08:37:31.928Z,31.80
2019-05-26T08:40:21.398Z,31.65
2019-05-26T08:42:54.875Z,24.98
2019-05-26T08:45:27.232Z,28.70
2019-05-26T08:48:00.054Z,29.30
2019-05-26T08:50:34.492Z,25.15
2019-05-26T08:53:06.926Z,30.27
2019-05-26T08:55:40.756Z,25.12
2019-05-26T09:00:45.825Z,28.50
2019-05-26T09:03:18.628Z,30.50
2019-05-26T09:08:23.090Z,24.75
2019-05-26T09:10:55.710Z,24.47
2019-05-26T09:13:28.413Z,29.30
2019-05-26T09:16:01.116Z,22.85
2019-05-26T09:18:33.700Z,28.12
2019-05-26T09:23:38.671Z,27.55
2019-05-26T09:26:11.956Z,25.48
2019-05-26T09:28:44.484Z,28.40
2019-05-26T09:31:16.855Z,35.03
2019-05-26T09:33:49.752Z,27.40
2019-05-26T09:36:22.116Z,30.95
2019-05-26T09:38:54.657Z,30.35
2019-05-26T09:41:31.285Z,28.47
2019-05-26T09:44:04.509Z,36.38
2019-05-26T09:46:38.066Z,33.08
2019-05-26T09:49:10.821Z,34.60
2019-05-26T09:51:43.606Z,35.23
2019-05-26T09:54:15.945Z,40.63
2019-05-26T09:56:52.936Z,32.48
2019-05-26T09:59:53.477Z,30.60
2019-05-26T10:02:26.451Z,32.48
2019-05-26T10:04:59.610Z,28.98
2019-05-26T10:07:35.537Z,29.02
2019-05-26T10:10:13.438Z,25.02
2019-05-26T10:12:46.772Z,28.30
2019-05-26T10:15:24.209Z,33.90
2019-05-26T10:17:56.300Z,34.98
2019-05-26T10:20:29.416Z,31.45
2019-05-26T10:23:01.976Z,33.20
2019-05-26T10:28:06.434Z,36.15
2019-05-26T10:30:39.370Z,24.20
2019-05-26T10:33:11.739Z,32.17
2019-05-26T10:35:44.707Z,16.85
2019-05-26T10:38:23.314Z,32.70
2019-05-26T10:40:58.403Z,31.65
2019-05-26T10:43:44.502Z,27.30
2019-05-26T10:46:08.966Z,21.20
2019-05-26T10:48:41.846Z,38.60
2019-05-26T10:51:14.998Z,18.87
2019-05-26T10:53:47.197Z,16.67
2019-05-26T10:56:19.979Z,20.20
2019-05-26T10:58:53.395Z,15.60
2019-05-26T11:01:30.376Z,15.38
2019-05-26T11:04:02.972Z,8.63
2019-05-26T11:06:37.256Z,22.20
2019-05-26T11:09:10.619Z,24.90
2019-05-26T11:11:45.860Z,20.45
2019-05-26T11:14:18.997Z,22.82
2019-05-26T11:16:55.828Z,24.12
2019-05-26T11:19:29.170Z,25.90
2019-05-26T11:22:02.055Z,22.65
2019-05-26T11:27:10.987Z,22.85
2019-05-26T11:29:40.362Z,22.35
2019-05-26T11:32:13.380Z,26.15
2019-05-26T15:27:40.503Z,63.85
2019-05-26T15:30:13.978Z,71.33
2019-05-26T15:32:47.866Z,76.07
2019-05-26T15:35:20.451Z,76.62
2019-05-26T15:37:53.326Z,78.65
2019-05-26T15:40:25.516Z,87.30
2019-05-26T15:42:58.688Z,81.22
2019-05-26T15:45:31.206Z,77.50
2019-05-26T15:48:04.289Z,75.45
2019-05-26T15:50:36.521Z,80.95
2019-05-26T15:53:09.367Z,75.80
2019-05-26T15:58:13.447Z,79.35
2019-05-26T16:01:05.801Z,33.05
2019-05-26T16:03:38.951Z,63.02
2019-05-26T16:08:43.208Z,43.68
2019-05-26T16:13:47.657Z,84.83
2019-05-26T16:18:53.220Z,52.43
2019-05-26T16:21:28.376Z,65.83
2019-05-26T16:24:00.937Z,86.35
2019-05-26T16:26:33.694Z,74.95
2019-05-26T16:29:07.107Z,78.67
2019-05-26T16:31:39.607Z,81.92
2019-05-26T16:34:12.413Z,84.60
2019-05-26T16:39:16.345Z,55.20
2019-05-26T16:44:20.347Z,46.98
2019-05-26T16:46:56.471Z,17.52
2019-05-26T16:49:28.059Z,39.08
2019-05-26T16:52:00.654Z,23.90
2019-05-26T16:54:34.665Z,23.40
2019-05-26T16:57:07.401Z,23.02
2019-05-26T16:59:40.849Z,15.68
2019-05-26T17:02:13.224Z,15.30
2019-05-26T17:04:45.908Z,16.00
2019-05-26T17:07:18.291Z,17.92
2019-05-26T17:09:51.420Z,16.65
2019-05-26T17:14:55.371Z,11.48
2019-05-26T17:17:27.965Z,14.90
2019-05-26T17:22:31.709Z,12.80
2019-05-26T17:27:35.253Z,10.60
2019-05-26T17:30:09.653Z,12.07
2019-05-26T17:32:42.217Z,11.38
2019-05-26T17:35:15.858Z,19.25
2019-05-26T17:37:48.122Z,12.63
2019-05-26T17:40:23.337Z,12.47
2019-05-26T17:42:55.806Z,14.47
2019-05-26T17:45:28.689Z,11.10
2019-05-26T17:48:00.992Z,15.23
2019-05-26T17:50:33.546Z,17.25
2019-05-26T17:53:05.986Z,13.08
2019-05-26T17:55:39.170Z,15.58
2019-05-26T17:58:11.575Z,15.93
2019-05-26T18:00:44.273Z,15.45
2019-05-26T18:06:01.211Z,12.60
2019-05-26T18:08:36.352Z,14.70
2019-05-26T18:11:09.142Z,16.25
2019-05-26T18:13:42.046Z,13.65
2019-05-26T18:16:14.920Z,11.15
2019-05-26T18:21:19.179Z,11.03
2019-05-26T18:26:23.043Z,9.70
2019-05-26T18:28:55.882Z,8.18
2019-05-26T18:31:29.147Z,8.55
2019-05-26T18:34:02.078Z,12.47
2019-05-26T18:36:34.324Z,8.70
2019-05-26T18:39:09.980Z,10.70
2019-05-26T18:41:42.301Z,12.47
2019-05-26T18:44:14.958Z,13.83
2019-05-26T18:46:47.423Z,11.53
2019-05-26T18:51:51.634Z,13.48
2019-05-26T18:54:24.352Z,17.20
2019-05-26T18:56:56.654Z,14.90
2019-05-26T18:59:29.600Z,16.55
2019-05-26T19:02:02.304Z,13.05
2019-05-26T19:07:06.080Z,14.40
2019-05-26T19:09:38.998Z,18.87
2019-05-26T19:12:11.706Z,16.23
2019-05-26T19:17:15.949Z,16.17
2019-05-26T19:19:48.739Z,18.98
2019-05-26T19:22:21.156Z,22.20
2019-05-26T19:24:53.880Z,16.52
2019-05-26T19:27:26.451Z,14.18
2019-05-26T19:29:59.264Z,13.48
2019-05-26T19:32:31.715Z,15.38
2019-05-26T19:35:04.378Z,20.52
2019-05-26T19:37:37.417Z,17.90
2019-05-26T19:40:11.373Z,24.00
2019-05-26T19:42:43.891Z,22.20
2019-05-26T19:47:48.266Z,22.67
2019-05-26T19:50:21.149Z,21.97
2019-05-26T19:52:53.830Z,22.40
2019-05-26T19:55:26.499Z,18.98
2019-05-26T19:57:58.835Z,18.00
2019-05-26T20:00:33.355Z,21.17
2019-05-26T20:03:05.774Z,21.10
2019-05-26T20:05:38.464Z,21.65
2019-05-26T20:08:11.312Z,19.48
2019-05-26T20:13:15.391Z,20.52
2019-05-26T20:15:48.021Z,18.75
2019-05-26T20:18:20.513Z,18.00
2019-05-26T20:20:53.661Z,17.60
2019-05-26T20:23:26.170Z,22.40
2019-05-26T20:25:58.865Z,22.10
2019-05-26T20:28:31.216Z,19.87
2019-05-26T20:31:04.149Z,21.42
2019-05-26T20:33:36.797Z,20.48
2019-05-26T20:36:09.438Z,17.05
2019-05-26T20:38:41.838Z,20.23
2019-05-26T20:41:14.499Z,19.57
2019-05-26T20:43:46.850Z,19.80
2019-05-26T20:46:19.860Z,20.35
2019-05-26T20:48:52.263Z,18.12
2019-05-26T20:51:25.151Z,18.20
2019-05-26T20:53:57.992Z,18.60
2019-05-26T20:56:30.569Z,14.40
2019-05-26T20:59:02.976Z,17.80
2019-05-26T21:04:07.669Z,16.50
2019-05-26T21:06:40.216Z,16.57
2019-05-26T21:09:12.789Z,17.30
2019-05-26T21:11:45.738Z,18.60
2019-05-26T21:14:18.019Z,15.30
2019-05-26T21:16:50.812Z,21.80
2019-05-26T21:19:23.189Z,21.30
2019-05-26T21:21:55.824Z,21.25
2019-05-26T21:24:28.553Z,21.62
2019-05-26T21:27:01.384Z,23.70
2019-05-26T21:29:33.843Z,22.17
2019-05-26T21:32:06.850Z,27.70
2019-05-26T21:34:40.192Z,27.22
2019-05-26T21:37:12.981Z,29.85
2019-05-26T21:39:45.914Z,29.32
2019-05-26T21:42:18.455Z,32.78
2019-05-26T21:44:51.246Z,30.88
2019-05-26T21:47:23.654Z,30.65
2019-05-26T21:49:56.130Z,30.00
2019-05-26T21:52:28.651Z,31.12
2019-05-26T21:55:00.956Z,29.87
2019-05-26T21:57:54.552Z,26.80
2019-05-26T22:00:29.344Z,26.05
2019-05-26T22:03:04.030Z,26.95
2019-05-26T22:05:36.614Z,20.25
2019-05-26T22:08:09.634Z,18.98
2019-05-26T22:10:42.103Z,25.50
2019-05-26T22:13:15.092Z,26.12
2019-05-26T22:18:20.167Z,22.93
2019-05-26T22:20:52.728Z,28.38
2019-05-26T22:23:26.196Z,27.52
2019-05-26T22:25:59.945Z,25.77
2019-05-26T22:28:32.701Z,28.23
2019-05-26T22:31:05.089Z,25.15
2019-05-26T22:33:38.882Z,23.92
2019-05-26T22:38:43.045Z,32.15
2019-05-26T22:41:15.383Z,31.62
2019-05-26T22:43:48.563Z,28.67
2019-05-26T22:46:20.839Z,26.30
2019-05-26T22:48:53.596Z,28.52
2019-05-26T22:53:57.926Z,24.60
2019-05-26T22:56:30.919Z,27.73
2019-05-26T22:59:03.805Z,27.75
2019-05-26T23:01:36.265Z,24.07
2019-05-26T23:06:40.728Z,28.50
2019-05-26T23:11:44.824Z,30.20
2019-05-26T23:14:17.706Z,27.60
2019-05-26T23:16:50.336Z,22.95
2019-05-26T23:19:23.184Z,32.28
2019-05-26T23:24:29.339Z,29.10
2019-05-26T23:27:02.296Z,35.30
2019-05-26T23:29:35.173Z,40.78
2019-05-26T23:32:07.598Z,38.53
2019-05-26T23:34:40.225Z,44.95
2019-05-26T23:37:13.203Z,49.58
2019-05-26T23:39:45.704Z,46.98
2019-05-26T23:42:18.028Z,34.27
2019-05-26T23:44:50.563Z,32.73
2019-05-26T23:47:23.569Z,33.83
2019-05-26T23:49:56.129Z,29.82
2019-05-26T23:52:29.060Z,29.40
2019-05-26T23:55:01.632Z,30.80
2019-05-26T23:57:38.330Z,30.12
